createdAt,value
2022-12-25T00:00:20.344Z,60.95
2022-12-25T00:03:30.109Z,61.47
2022-12-25T00:06:38.001Z,61.56
2022-12-25T00:09:44.615Z,62.10
2022-12-25T00:12:50.335Z,61.87
2022-12-25T00:15:57.126Z,61.45
2022-12-25T00:19:05.488Z,61.84
2022-12-25T00:22:12.018Z,61.45
2022-12-25T00:25:17.892Z,61.14
2022-12-25T00:28:26.937Z,60.60
2022-12-25T00:31:32.781Z,60.88
2022-12-25T00:34:42.068Z,61.38
2022-12-25T00:37:47.714Z,62.02
2022-12-25T00:40:54.847Z,61.93
2022-12-25T00:44:00.500Z,62.35
2022-12-25T00:47:07.541Z,62.54
2022-12-25T00:50:16.025Z,62.43
2022-12-25T00:53:22.463Z,62.52
2022-12-25T00:56:28.441Z,62.75
2022-12-25T00:59:35.596Z,62.76
2022-12-25T01:02:43.171Z,62.87
2022-12-25T01:06:02.071Z,62.79
2022-12-25T01:09:20.454Z,62.82
2022-12-25T01:12:27.630Z,62.93
2022-12-25T01:15:33.236Z,63.13
2022-12-25T01:18:40.675Z,63.14
2022-12-25T01:21:48.966Z,62.77
2022-12-25T01:24:55.482Z,62.64
2022-12-25T01:28:02.930Z,62.63
2022-12-25T01:31:14.657Z,62.56
2022-12-25T01:34:20.425Z,62.18
2022-12-25T01:37:29.882Z,61.91
2022-12-25T01:40:37.716Z,62.66
2022-12-25T01:44:06.560Z,62.61
2022-12-25T01:47:12.185Z,62.72
2022-12-25T01:50:19.615Z,62.55
2022-12-25T01:53:29.686Z,61.85
2022-12-25T01:56:40.738Z,62.01
2022-12-25T01:59:47.920Z,61.88
2022-12-25T02:02:54.634Z,61.93
2022-12-25T02:06:01.858Z,62.07
2022-12-25T02:09:11.322Z,61.52
2022-12-25T02:12:26.067Z,62.03
2022-12-25T02:15:48.805Z,62.30
2022-12-25T02:19:06.272Z,62.36
2022-12-25T02:22:37.870Z,62.20
2022-12-25T02:26:11.185Z,61.85
2022-12-25T02:29:32.032Z,61.59
2022-12-25T02:32:47.995Z,61.87
2022-12-25T02:35:59.944Z,61.51
2022-12-25T02:39:34.791Z,61.42
2022-12-25T02:43:03.255Z,61.45
2022-12-25T02:46:32.549Z,60.91
2022-12-25T02:49:54.358Z,60.27
2022-12-25T02:53:18.555Z,60.34
2022-12-25T02:56:43.295Z,59.96
2022-12-25T03:00:09.768Z,59.36
2022-12-25T03:03:33.814Z,59.80
2022-12-25T03:06:48.758Z,60.14
2022-12-25T03:10:14.915Z,59.75
2022-12-25T03:13:27.363Z,59.40
2022-12-25T03:16:46.819Z,59.87
2022-12-25T03:20:08.643Z,59.33
2022-12-25T03:23:34.472Z,59.32
2022-12-25T03:26:54.092Z,59.70
2022-12-25T03:30:20.777Z,59.60
2022-12-25T03:34:09.342Z,59.87
2022-12-25T03:37:57.772Z,60.00
2022-12-25T03:41:34.957Z,60.10
2022-12-25T03:45:10.751Z,60.48
2022-12-25T03:48:33.450Z,59.88
2022-12-25T03:51:58.380Z,60.15
2022-12-25T03:55:27.078Z,60.42
2022-12-25T03:58:45.234Z,60.67
2022-12-25T04:02:05.851Z,60.71
2022-12-25T04:05:24.362Z,60.69
2022-12-25T04:08:43.493Z,60.33
2022-12-25T04:12:07.466Z,60.11
2022-12-25T04:15:27.145Z,60.34
2022-12-25T04:18:45.292Z,60.47
2022-12-25T04:22:15.903Z,59.87
2022-12-25T04:25:33.958Z,59.85
2022-12-25T04:28:55.399Z,60.21
2022-12-25T04:32:28.593Z,59.87
2022-12-25T04:35:47.360Z,59.90
2022-12-25T04:38:53.186Z,59.78
2022-12-25T04:42:01.183Z,60.26
2022-12-25T04:45:14.377Z,60.13
2022-12-25T04:48:20.911Z,59.57
2022-12-25T04:51:29.636Z,59.54
2022-12-25T04:54:36.309Z,59.36
2022-12-25T04:57:42.751Z,59.28
2022-12-25T05:00:51.882Z,58.91
2022-12-25T05:03:57.791Z,59.01
2022-12-25T05:07:04.422Z,59.10
2022-12-25T05:10:11.921Z,58.84
2022-12-25T05:13:18.600Z,58.83
2022-12-25T05:16:27.617Z,59.19
2022-12-25T05:19:34.315Z,59.17
2022-12-25T05:22:40.006Z,59.67
2022-12-25T05:25:46.351Z,59.81
2022-12-25T05:28:52.725Z,59.30
2022-12-25T05:32:02.230Z,60.00
2022-12-25T05:35:09.457Z,59.18
2022-12-25T05:38:16.016Z,58.82
2022-12-25T05:41:21.777Z,59.30
2022-12-25T05:44:28.400Z,59.32
2022-12-25T05:47:36.759Z,59.35
2022-12-25T05:50:43.177Z,58.26
2022-12-25T05:53:48.812Z,58.79
2022-12-25T05:56:55.306Z,59.20
2022-12-25T06:00:01.831Z,59.04
2022-12-25T06:03:11.014Z,59.52
2022-12-25T06:06:17.845Z,60.15
2022-12-25T06:09:24.245Z,60.84
2022-12-25T06:12:30.053Z,61.17
2022-12-25T06:15:36.613Z,61.55
2022-12-25T06:18:52.640Z,61.54
2022-12-25T06:22:01.807Z,61.61
2022-12-25T06:25:17.488Z,61.60
2022-12-25T06:28:25.431Z,61.51
2022-12-25T06:31:31.351Z,62.00
2022-12-25T06:34:40.632Z,61.73
2022-12-25T06:37:46.452Z,61.23
2022-12-25T06:40:53.042Z,61.58
2022-12-25T06:44:03.471Z,62.01
2022-12-25T06:47:10.164Z,62.24
2022-12-25T06:50:21.105Z,62.93
2022-12-25T06:53:28.203Z,63.15
2022-12-25T06:56:37.795Z,63.47
2022-12-25T06:59:46.392Z,63.72
2022-12-25T07:02:54.606Z,64.27
2022-12-25T07:06:03.828Z,64.74
2022-12-25T07:09:09.564Z,64.88
2022-12-25T07:12:22.026Z,64.67
2022-12-25T07:15:27.750Z,64.76
2022-12-25T07:18:35.731Z,64.63
2022-12-25T07:21:43.995Z,64.26
2022-12-25T07:24:50.540Z,64.27
2022-12-25T07:27:56.198Z,64.29
2022-12-25T07:31:08.753Z,63.86
2022-12-25T07:34:14.402Z,63.72
2022-12-25T07:37:23.342Z,62.43
2022-12-25T07:40:28.993Z,61.74
2022-12-25T07:43:35.475Z,61.78
2022-12-25T07:46:41.143Z,61.08
2022-12-25T07:49:47.608Z,60.56
2022-12-25T07:52:56.080Z,59.29
2022-12-25T07:56:06.543Z,56.61
2022-12-25T07:59:12.262Z,55.90
2022-12-25T08:02:18.695Z,55.43
2022-12-25T08:05:24.455Z,55.31
2022-12-25T08:08:34.469Z,56.43
2022-12-25T08:11:41.766Z,56.58
2022-12-25T08:14:48.290Z,56.35
2022-12-25T08:17:53.975Z,56.81
2022-12-25T08:21:05.655Z,57.12
2022-12-25T08:24:13.965Z,57.23
2022-12-25T08:27:20.351Z,57.04
2022-12-25T08:30:26.547Z,57.58
2022-12-25T08:33:33.044Z,57.77
2022-12-25T08:36:38.948Z,59.05
2022-12-25T08:39:48.098Z,58.82
2022-12-25T08:42:53.939Z,59.18
2022-12-25T08:46:00.937Z,59.25
2022-12-25T08:49:06.692Z,59.53
2022-12-25T08:52:13.178Z,59.78
2022-12-25T08:55:21.626Z,59.59
2022-12-25T08:58:28.638Z,60.10
2022-12-25T09:01:34.591Z,59.86
2022-12-25T09:04:41.561Z,59.97
2022-12-25T09:07:47.497Z,60.38
2022-12-25T09:10:56.765Z,60.51
2022-12-25T09:14:03.679Z,60.65
2022-12-25T09:17:10.369Z,61.10
2022-12-25T09:20:16.153Z,60.93
2022-12-25T09:23:22.633Z,61.16
2022-12-25T09:26:30.911Z,60.88
2022-12-25T09:29:39.087Z,61.25
2022-12-25T09:32:45.078Z,60.82
2022-12-25T09:35:59.250Z,60.64
2022-12-25T09:39:05.397Z,60.41
2022-12-25T09:42:22.886Z,60.18
2022-12-25T09:45:36.032Z,59.97
2022-12-25T09:48:51.229Z,59.99
2022-12-25T09:52:08.076Z,59.39
2022-12-25T09:55:20.615Z,59.58
2022-12-25T09:58:33.279Z,59.09
2022-12-25T10:02:05.919Z,59.43
2022-12-25T10:06:09.273Z,58.86
2022-12-25T10:09:51.146Z,58.70
2022-12-25T10:13:14.622Z,58.65
2022-12-25T10:16:37.779Z,58.92
2022-12-25T10:19:58.336Z,58.37
2022-12-25T10:23:16.993Z,58.65
2022-12-25T10:26:27.360Z,58.93
2022-12-25T10:29:38.695Z,57.95
2022-12-25T10:32:49.460Z,58.39
2022-12-25T10:35:56.067Z,57.97
2022-12-25T10:39:02.187Z,58.05
2022-12-25T10:42:40.328Z,58.02
2022-12-25T10:45:49.142Z,57.94
2022-12-25T10:49:05.875Z,57.83
2022-12-25T10:52:24.424Z,57.91
2022-12-25T10:55:30.953Z,57.98
2022-12-25T10:58:37.622Z,55.92
2022-12-25T11:01:44.448Z,53.93
2022-12-25T11:05:02.584Z,52.45
2022-12-25T11:08:24.489Z,49.28
2022-12-25T11:11:33.591Z,47.82
2022-12-25T11:14:40.794Z,46.11
2022-12-25T11:17:52.615Z,44.17
2022-12-25T11:21:04.186Z,44.09
2022-12-25T11:24:22.469Z,42.37
2022-12-25T11:27:33.669Z,43.62
2022-12-25T11:30:43.092Z,43.17
2022-12-25T11:34:00.312Z,43.38
2022-12-25T11:37:20.540Z,42.95
2022-12-25T11:40:37.427Z,43.98
2022-12-25T11:43:56.568Z,44.81
2022-12-25T11:47:16.527Z,44.54
2022-12-25T11:50:33.726Z,44.33
2022-12-25T11:53:54.809Z,43.64
2022-12-25T11:57:09.382Z,42.96
2022-12-25T12:00:19.869Z,41.66
2022-12-25T12:03:34.054Z,42.12
2022-12-25T12:06:59.167Z,42.47
2022-12-25T12:10:21.961Z,41.88
2022-12-25T12:13:53.615Z,42.83
2022-12-25T12:16:59.548Z,44.42
2022-12-25T12:20:16.346Z,45.31
2022-12-25T12:23:22.211Z,46.32
2022-12-25T12:26:38.001Z,47.83
2022-12-25T12:29:51.503Z,48.83
2022-12-25T12:33:02.889Z,49.78
2022-12-25T12:36:15.502Z,50.65
2022-12-25T12:39:29.711Z,50.85
2022-12-25T12:42:50.763Z,51.01
2022-12-25T12:46:04.829Z,51.47
2022-12-25T12:49:23.542Z,51.74
2022-12-25T12:52:37.835Z,52.12
2022-12-25T12:55:43.678Z,52.25
2022-12-25T12:58:53.976Z,52.36
2022-12-25T13:02:29.245Z,52.21
2022-12-25T13:05:46.295Z,53.07
2022-12-25T13:09:09.373Z,53.19
2022-12-25T13:12:19.878Z,53.93
2022-12-25T13:15:33.465Z,53.66
2022-12-25T13:18:44.859Z,53.35
2022-12-25T13:21:58.518Z,53.96
2022-12-25T13:25:10.348Z,54.01
2022-12-25T13:28:17.886Z,54.54
2022-12-25T13:31:30.932Z,54.32
2022-12-25T13:34:42.387Z,54.15
2022-12-25T13:37:51.559Z,54.34
2022-12-25T13:41:13.570Z,54.39
2022-12-25T13:44:26.552Z,54.81
2022-12-25T13:47:41.521Z,54.87
2022-12-25T13:50:48.982Z,54.83
2022-12-25T13:54:06.557Z,55.39
2022-12-25T13:57:16.047Z,55.12
2022-12-25T14:00:27.665Z,55.41
2022-12-25T14:03:42.908Z,54.85
2022-12-25T14:06:49.131Z,54.74
2022-12-25T14:10:03.352Z,55.13
2022-12-25T14:13:17.458Z,55.00
2022-12-25T14:16:26.258Z,55.37
2022-12-25T14:19:39.382Z,55.35
2022-12-25T14:22:55.136Z,55.62
2022-12-25T14:26:01.062Z,55.49
2022-12-25T14:29:20.467Z,55.77
2022-12-25T14:32:34.247Z,56.00
2022-12-25T14:35:46.166Z,55.96
2022-12-25T14:39:04.205Z,56.14
2022-12-25T14:42:23.266Z,55.74
2022-12-25T14:45:35.566Z,56.04
2022-12-25T14:48:42.659Z,55.51
2022-12-25T14:51:51.031Z,55.59
2022-12-25T14:55:03.837Z,55.36
2022-12-25T14:58:21.477Z,56.22
2022-12-25T15:01:35.722Z,56.92
2022-12-25T15:04:45.858Z,57.16
2022-12-25T15:08:26.843Z,57.82
2022-12-25T15:11:33.432Z,57.90
2022-12-25T15:14:40.522Z,57.34
2022-12-25T15:17:46.572Z,57.50
2022-12-25T15:20:58.761Z,57.42
2022-12-25T15:24:08.094Z,58.01
2022-12-25T15:27:21.564Z,58.29
2022-12-25T15:30:30.584Z,57.84
2022-12-25T15:33:42.220Z,57.86
2022-12-25T15:36:50.112Z,57.78
2022-12-25T15:39:59.588Z,57.72
2022-12-25T15:43:11.365Z,57.51
2022-12-25T15:46:27.465Z,57.35
2022-12-25T15:49:33.137Z,57.29
2022-12-25T15:52:39.828Z,57.05
2022-12-25T15:55:48.125Z,57.52
2022-12-25T15:58:55.219Z,56.84
2022-12-25T16:02:04.553Z,56.31
2022-12-25T16:05:12.244Z,57.62
2022-12-25T16:08:17.938Z,58.28
2022-12-25T16:11:27.326Z,58.60
2022-12-25T16:14:33.398Z,59.10
2022-12-25T16:17:39.980Z,59.40
2022-12-25T16:20:45.819Z,60.13
2022-12-25T16:23:52.804Z,60.68
2022-12-25T16:27:01.104Z,60.65
2022-12-25T16:30:09.534Z,60.71
2022-12-25T16:33:15.486Z,60.58
2022-12-25T16:36:26.876Z,60.08
2022-12-25T16:39:33.083Z,60.20
2022-12-25T16:42:42.721Z,60.45
2022-12-25T16:45:48.437Z,60.51
2022-12-25T16:48:57.402Z,60.23
2022-12-25T16:52:03.990Z,59.72
2022-12-25T16:55:11.684Z,59.79
2022-12-25T16:58:21.079Z,59.30
2022-12-25T17:01:28.421Z,59.34
2022-12-25T17:04:34.579Z,59.05
2022-12-25T17:07:41.200Z,58.93
2022-12-25T17:10:46.792Z,59.33
2022-12-25T17:13:56.381Z,59.58
2022-12-25T17:17:02.122Z,59.75
2022-12-25T17:20:11.051Z,59.58
2022-12-25T17:23:16.768Z,59.78
2022-12-25T17:26:24.369Z,60.00
2022-12-25T17:29:32.980Z,60.20
2022-12-25T17:32:39.768Z,60.47
2022-12-25T17:35:45.565Z,61.29
2022-12-25T17:38:52.924Z,61.95
2022-12-25T17:41:58.754Z,61.93
2022-12-25T17:45:09.316Z,61.89
2022-12-25T17:48:14.953Z,62.05
2022-12-25T17:51:24.699Z,62.31
2022-12-25T17:54:30.560Z,62.06
2022-12-25T17:57:37.329Z,62.02
2022-12-25T18:00:45.706Z,62.16
2022-12-25T18:03:53.018Z,62.36
2022-12-25T18:06:58.731Z,62.75
2022-12-25T18:10:05.479Z,62.87
2022-12-25T18:13:11.560Z,63.00
2022-12-25T18:16:24.063Z,62.81
2022-12-25T18:19:29.831Z,62.77
2022-12-25T18:22:37.417Z,62.47
2022-12-25T18:25:45.728Z,62.83
2022-12-25T18:28:53.287Z,62.97
2022-12-25T18:32:01.785Z,62.59
2022-12-25T18:35:09.596Z,62.46
2022-12-25T18:38:16.997Z,62.18
2022-12-25T18:41:27.702Z,62.66
2022-12-25T18:44:33.988Z,62.57
2022-12-25T18:47:43.305Z,62.71
2022-12-25T18:50:49.005Z,63.06
2022-12-25T18:53:56.540Z,63.05
2022-12-25T18:57:07.146Z,63.20
2022-12-25T19:00:15.597Z,63.22
2022-12-25T19:03:24.778Z,63.23
2022-12-25T19:06:33.503Z,63.30
2022-12-25T19:09:40.381Z,63.46
2022-12-25T19:12:47.430Z,63.06
2022-12-25T19:15:53.492Z,63.36
2022-12-25T19:19:06.576Z,62.90
2022-12-25T19:22:14.002Z,63.12
2022-12-25T19:25:21.507Z,63.20
2022-12-25T19:28:27.906Z,63.27
2022-12-25T19:31:34.848Z,63.18
2022-12-25T19:34:43.367Z,63.27
2022-12-25T19:37:51.749Z,63.33
2022-12-25T19:41:03.821Z,63.48
2022-12-25T19:44:14.422Z,63.64
2022-12-25T19:47:20.129Z,63.69
2022-12-25T19:50:37.203Z,63.72
2022-12-25T19:53:45.130Z,63.77
2022-12-25T19:56:52.851Z,63.41
2022-12-25T19:59:58.909Z,63.12
2022-12-25T20:03:05.695Z,63.05
2022-12-25T20:06:22.151Z,62.85
2022-12-25T20:09:28.754Z,62.99
2022-12-25T20:12:34.457Z,63.29
2022-12-25T20:15:41.467Z,63.38
2022-12-25T20:18:47.949Z,63.67
2022-12-25T20:21:57.257Z,63.83
2022-12-25T20:25:03.401Z,63.70
2022-12-25T20:28:09.861Z,63.71
2022-12-25T20:31:20.918Z,63.18
2022-12-25T20:34:30.168Z,63.55
2022-12-25T20:37:38.639Z,63.54
2022-12-25T20:41:24.483Z,63.84
2022-12-25T20:44:13.529Z,63.81
2022-12-25T20:47:20.920Z,63.54
2022-12-25T20:50:28.404Z,63.60
2022-12-25T20:53:37.889Z,63.44
2022-12-25T20:56:46.075Z,63.24
2022-12-25T20:59:52.667Z,63.65
2022-12-25T21:02:58.896Z,63.90
2022-12-25T21:06:06.416Z,63.99
2022-12-25T21:09:14.726Z,64.18
2022-12-25T21:12:23.675Z,64.13
2022-12-25T21:15:36.741Z,64.13
2022-12-25T21:18:43.572Z,64.19
2022-12-25T21:21:49.178Z,64.20
2022-12-25T21:24:58.590Z,64.21
2022-12-25T21:28:04.820Z,64.52
2022-12-25T21:31:14.085Z,64.57
2022-12-25T21:34:17.427Z,64.20
2022-12-25T21:37:26.514Z,63.71
2022-12-25T21:40:39.718Z,63.51
2022-12-25T21:43:46.954Z,63.28
2022-12-25T21:46:52.762Z,63.06
2022-12-25T21:50:11.903Z,62.83
2022-12-25T21:53:23.188Z,62.74
2022-12-25T21:56:43.092Z,62.58
2022-12-25T21:59:49.545Z,62.44
2022-12-25T22:02:57.545Z,62.77
2022-12-25T22:06:21.155Z,62.94
2022-12-25T22:09:28.655Z,63.22
2022-12-25T22:12:51.598Z,62.80
2022-12-25T22:16:19.784Z,62.39
2022-12-25T22:19:38.187Z,62.49
2022-12-25T22:22:45.687Z,62.16
2022-12-25T22:25:51.471Z,62.53
2022-12-25T22:29:00.636Z,62.16
2022-12-25T22:32:07.443Z,62.49
2022-12-25T22:35:15.052Z,62.96
2022-12-25T22:38:20.721Z,62.99
2022-12-25T22:41:33.300Z,62.99
2022-12-25T22:44:42.468Z,63.63
2022-12-25T22:47:48.890Z,63.56
2022-12-25T22:50:54.798Z,63.93
2022-12-25T22:54:03.830Z,63.98
2022-12-25T22:57:09.811Z,63.86
2022-12-25T23:00:19.212Z,63.96
2022-12-25T23:03:25.045Z,63.81
2022-12-25T23:06:32.084Z,63.26
2022-12-25T23:09:37.798Z,63.01
2022-12-25T23:12:56.661Z,63.01
2022-12-25T23:16:05.408Z,63.35
2022-12-25T23:19:27.107Z,63.48
2022-12-25T23:22:45.161Z,63.65
2022-12-25T23:26:04.019Z,63.47
2022-12-25T23:29:22.069Z,63.70
2022-12-25T23:32:31.714Z,63.37
2022-12-25T23:35:37.623Z,62.80
2022-12-25T23:38:44.024Z,62.77
2022-12-25T23:41:49.631Z,62.80
2022-12-25T23:44:56.035Z,62.73
2022-12-25T23:48:04.361Z,63.09
2022-12-25T23:51:14.205Z,63.40
2022-12-25T23:54:24.007Z,64.11
2022-12-25T23:57:30.385Z,64.60
